createdAt,value
2018-03-24T00:01:01.600Z,1.87
2018-03-24T00:03:29.237Z,1.84
2018-03-24T00:05:56.772Z,1.83
2018-03-24T00:08:25.112Z,1.80
2018-03-24T00:10:53.296Z,1.77
2018-03-24T00:13:20.850Z,1.73
2018-03-24T00:15:48.445Z,1.70
2018-03-24T00:18:17.165Z,1.64
2018-03-24T00:20:44.854Z,1.60
2018-03-24T00:26:43.664Z,1.52
2018-03-24T00:29:11.274Z,1.49
2018-03-24T00:31:38.906Z,1.46
2018-03-24T00:34:06.677Z,1.44
2018-03-24T00:36:34.407Z,1.43
2018-03-24T00:39:02.370Z,1.42
2018-03-24T00:41:30.660Z,1.40
2018-03-24T00:43:58.280Z,1.37
2018-03-24T00:46:25.873Z,1.33
2018-03-24T00:48:53.535Z,1.30
2018-03-24T00:51:21.561Z,1.27
2018-03-24T00:53:49.217Z,1.23
2018-03-24T00:56:17.320Z,1.22
2018-03-24T00:58:44.959Z,1.19
2018-03-24T01:01:13.326Z,1.17
2018-03-24T01:03:40.889Z,1.14
2018-03-24T01:06:08.807Z,1.11
2018-03-24T01:08:37.241Z,1.07
2018-03-24T01:11:06.172Z,1.06
2018-03-24T01:13:34.477Z,1.02
2018-03-24T01:16:02.196Z,1.02
2018-03-24T01:18:30.525Z,1.02
2018-03-24T01:20:58.184Z,1.04
2018-03-24T01:23:26.653Z,1.06
2018-03-24T01:25:54.564Z,1.09
2018-03-24T01:28:22.189Z,1.13
2018-03-24T01:30:49.861Z,1.16
2018-03-24T01:33:17.482Z,1.18
2018-03-24T01:35:47.402Z,1.20
2018-03-24T01:38:15.124Z,1.24
2018-03-24T01:40:43.516Z,1.25
2018-03-24T01:43:11.126Z,1.27
2018-03-24T01:45:38.758Z,1.26
2018-03-24T01:48:07.350Z,1.26
2018-03-24T01:50:36.086Z,1.27
2018-03-24T01:53:04.936Z,1.23
2018-03-24T01:55:33.143Z,1.19
2018-03-24T01:58:00.731Z,1.15
2018-03-24T02:00:29.203Z,1.13
2018-03-24T02:02:57.501Z,1.09
2018-03-24T02:05:25.097Z,1.03
2018-03-24T02:07:52.708Z,0.98
2018-03-24T02:10:20.939Z,0.96
2018-03-24T02:12:48.989Z,0.92
2018-03-24T02:15:16.729Z,0.87
2018-03-24T02:17:45.152Z,0.85
2018-03-24T02:20:14.528Z,0.81
2018-03-24T02:22:42.143Z,0.76
2018-03-24T02:25:09.878Z,0.70
2018-03-24T02:27:37.513Z,0.63
2018-03-24T02:30:05.949Z,0.59
2018-03-24T02:32:33.544Z,0.55
2018-03-24T02:35:01.177Z,0.51
2018-03-24T02:37:29.544Z,0.46
2018-03-24T02:39:57.137Z,0.41
2018-03-24T02:42:24.697Z,0.36
2018-03-24T02:44:52.917Z,0.34
2018-03-24T02:47:20.471Z,0.31
2018-03-24T02:49:48.326Z,0.30
2018-03-24T02:52:16.646Z,0.30
2018-03-24T02:54:44.202Z,0.27
2018-03-24T02:57:11.815Z,0.26
2018-03-24T02:59:40.366Z,0.25
2018-03-24T03:02:08.672Z,0.24
2018-03-24T03:04:36.664Z,0.25
2018-03-24T03:07:06.117Z,0.25
2018-03-24T03:09:36.116Z,0.23
2018-03-24T03:12:06.165Z,0.22
2018-03-24T03:14:33.753Z,0.18
2018-03-24T03:17:02.629Z,0.16
2018-03-24T03:19:31.141Z,0.13
2018-03-24T03:21:58.943Z,0.10
2018-03-24T03:24:26.913Z,0.07
2018-03-24T03:26:54.676Z,0.04
2018-03-24T03:29:22.313Z,0.05
2018-03-24T03:32:01.449Z,0.03
2018-03-24T03:34:29.741Z,0.00
2018-03-24T03:36:57.599Z,-0.02
2018-03-24T03:39:25.187Z,-0.07
2018-03-24T03:41:52.767Z,-0.10
2018-03-24T03:44:20.408Z,-0.10
2018-03-24T03:46:48.884Z,-0.12
2018-03-24T03:49:16.945Z,-0.13
2018-03-24T03:51:45.569Z,-0.14
2018-03-24T03:54:13.161Z,-0.15
2018-03-24T03:56:40.713Z,-0.18
2018-03-24T03:59:08.335Z,-0.20
2018-03-24T04:01:36.836Z,-0.23
2018-03-24T04:04:05.711Z,-0.24
2018-03-24T04:06:33.392Z,-0.27
2018-03-24T04:09:01.608Z,-0.30
2018-03-24T04:11:29.511Z,-0.31
2018-03-24T04:13:57.511Z,-0.37
2018-03-24T04:16:25.121Z,-0.41
2018-03-24T04:18:53.418Z,-0.45
2018-03-24T04:21:21.009Z,-0.49
2018-03-24T04:23:48.736Z,-0.52
2018-03-24T04:26:16.481Z,-0.56
2018-03-24T04:28:45.220Z,-0.57
2018-03-24T04:31:14.507Z,-0.59
2018-03-24T04:33:42.090Z,-0.60
2018-03-24T04:36:09.753Z,-0.59
2018-03-24T04:38:37.432Z,-0.62
2018-03-24T04:41:06.157Z,-0.62
2018-03-24T04:43:34.086Z,-0.60
2018-03-24T04:46:02.273Z,-0.60
2018-03-24T04:48:29.845Z,-0.59
2018-03-24T04:50:58.246Z,-0.59
2018-03-24T04:53:26.649Z,-0.59
2018-03-24T04:55:54.275Z,-0.60
2018-03-24T04:58:21.882Z,-0.59
2018-03-24T05:00:50.336Z,-0.59
2018-03-24T05:03:18.828Z,-0.58
2018-03-24T05:05:47.427Z,-0.54
2018-03-24T05:08:15.589Z,-0.50
2018-03-24T05:10:43.209Z,-0.47
2018-03-24T05:13:11.386Z,-0.44
2018-03-24T05:15:38.981Z,-0.38
2018-03-24T05:18:07.362Z,-0.34
2018-03-24T05:20:35.842Z,-0.33
2018-03-24T05:23:03.405Z,-0.33
2018-03-24T05:25:31.003Z,-0.26
2018-03-24T05:27:58.596Z,-0.19
2018-03-24T05:30:27.248Z,-0.08
2018-03-24T05:32:54.880Z,0.03
2018-03-24T05:35:22.469Z,0.16
2018-03-24T05:37:50.365Z,0.30
2018-03-24T05:40:17.987Z,0.42
2018-03-24T05:42:45.556Z,0.52
2018-03-24T05:45:13.673Z,0.62
2018-03-24T05:47:41.252Z,0.74
2018-03-24T05:50:09.457Z,0.83
2018-03-24T05:52:37.744Z,0.92
2018-03-24T05:55:06.562Z,1.05
2018-03-24T05:57:35.675Z,1.19
2018-03-24T06:00:05.133Z,1.32
2018-03-24T06:02:33.275Z,1.44
2018-03-24T06:05:00.840Z,1.57
2018-03-24T06:07:28.392Z,1.74
2018-03-24T06:09:56.439Z,1.86
2018-03-24T06:12:24.650Z,1.99
2018-03-24T06:14:52.623Z,2.04
2018-03-24T06:17:20.369Z,2.09
2018-03-24T06:19:48.855Z,2.11
2018-03-24T06:22:16.380Z,2.17
2018-03-24T06:24:43.909Z,2.25
2018-03-24T06:27:12.090Z,2.31
2018-03-24T06:29:39.639Z,2.35
2018-03-24T06:32:07.206Z,2.35
2018-03-24T06:34:35.461Z,2.38
2018-03-24T06:37:14.824Z,2.45
2018-03-24T06:39:42.411Z,2.50
2018-03-24T06:42:09.975Z,2.56
2018-03-24T06:44:38.496Z,2.61
2018-03-24T06:47:06.291Z,2.69
2018-03-24T06:49:34.302Z,2.81
2018-03-24T06:52:02.301Z,2.95
2018-03-24T06:54:29.860Z,3.07
2018-03-24T06:56:57.446Z,3.16
2018-03-24T06:59:25.080Z,3.31
2018-03-24T07:01:53.383Z,3.46
2018-03-24T07:04:20.944Z,3.54
2018-03-24T07:06:48.476Z,3.66
2018-03-24T07:09:16.549Z,3.73
2018-03-24T07:11:44.698Z,3.83
2018-03-24T07:14:12.237Z,3.95
2018-03-24T07:16:39.752Z,4.04
2018-03-24T07:19:07.686Z,4.16
2018-03-24T07:21:36.419Z,4.23
2018-03-24T07:24:04.562Z,4.28
2018-03-24T07:26:32.101Z,4.37
2018-03-24T07:28:59.680Z,4.46
2018-03-24T07:31:27.235Z,4.58
2018-03-24T07:33:54.755Z,4.71
2018-03-24T07:36:22.410Z,4.85
2018-03-24T07:38:50.042Z,4.96
2018-03-24T07:41:17.644Z,5.04
2018-03-24T07:43:45.235Z,5.15
2018-03-24T07:46:13.522Z,5.23
2018-03-24T07:48:41.047Z,5.20
2018-03-24T07:51:09.379Z,5.18
2018-03-24T07:53:36.992Z,5.25
2018-03-24T07:56:04.570Z,5.37
2018-03-24T07:58:32.120Z,5.48
2018-03-24T08:01:00.689Z,5.52
2018-03-24T08:03:28.233Z,5.59
2018-03-24T08:05:55.766Z,5.64
2018-03-24T08:08:24.190Z,5.63
2018-03-24T08:10:51.853Z,5.60
2018-03-24T08:13:19.985Z,5.62
2018-03-24T08:15:47.517Z,5.61
2018-03-24T08:18:15.954Z,5.67
2018-03-24T08:20:43.473Z,5.76
2018-03-24T08:23:11.443Z,5.83
2018-03-24T08:25:38.967Z,5.79
2018-03-24T08:28:06.758Z,5.76
2018-03-24T08:30:34.441Z,5.82
2018-03-24T08:33:02.016Z,5.83
2018-03-24T08:35:30.104Z,5.91
2018-03-24T08:37:57.668Z,6.10
2018-03-24T08:40:25.182Z,6.25
2018-03-24T08:42:52.731Z,6.33
2018-03-24T08:45:21.917Z,6.32
2018-03-24T08:47:49.452Z,6.22
2018-03-24T08:50:17.610Z,6.19
2018-03-24T08:52:45.671Z,6.17
2018-03-24T08:55:13.241Z,6.18
2018-03-24T08:57:40.768Z,6.20
2018-03-24T09:00:09.058Z,6.27
2018-03-24T09:02:37.460Z,6.34
2018-03-24T09:05:05.254Z,6.41
2018-03-24T09:07:32.844Z,6.48
2018-03-24T09:10:01.046Z,6.47
2018-03-24T09:12:29.245Z,6.46
2018-03-24T09:14:57.415Z,6.47
2018-03-24T09:17:24.966Z,6.48
2018-03-24T09:19:53.052Z,6.55
2018-03-24T09:22:20.638Z,6.56
2018-03-24T09:24:48.218Z,6.61
2018-03-24T09:27:15.777Z,6.64
2018-03-24T09:29:43.325Z,6.72
2018-03-24T09:32:10.924Z,6.82
2018-03-24T09:34:38.569Z,6.92
2018-03-24T09:37:06.863Z,7.08
2018-03-24T09:39:35.050Z,7.14
2018-03-24T09:42:02.612Z,7.31
2018-03-24T09:44:30.978Z,7.46
2018-03-24T09:46:58.536Z,7.55
2018-03-24T09:49:26.056Z,7.54
2018-03-24T09:51:54.172Z,7.58
2018-03-24T09:54:21.720Z,7.55
2018-03-24T09:56:49.257Z,7.57
2018-03-24T09:59:16.820Z,7.63
2018-03-24T10:01:45.620Z,7.62
2018-03-24T10:04:13.216Z,7.64
2018-03-24T10:06:40.772Z,7.67
2018-03-24T10:09:09.178Z,7.66
2018-03-24T10:11:37.384Z,7.54
2018-03-24T10:14:05.008Z,7.46
2018-03-24T10:16:33.369Z,7.43
2018-03-24T10:19:01.733Z,7.37
2018-03-24T10:21:45.397Z,7.47
2018-03-24T10:24:20.460Z,7.62
2018-03-24T10:26:48.024Z,7.73
2018-03-24T10:29:15.584Z,7.80
2018-03-24T10:31:43.145Z,7.90
2018-03-24T10:34:10.774Z,7.96
2018-03-24T10:36:38.322Z,7.95
2018-03-24T10:39:06.194Z,7.94
2018-03-24T10:41:33.772Z,7.96
2018-03-24T10:44:01.717Z,7.91
2018-03-24T10:46:29.734Z,7.86
2018-03-24T10:48:57.270Z,7.83
2018-03-24T10:51:25.532Z,7.91
2018-03-24T10:53:53.151Z,8.09
2018-03-24T10:56:21.255Z,8.21
2018-03-24T10:58:48.858Z,8.32
2018-03-24T11:01:25.554Z,8.39
2018-03-24T11:03:53.131Z,8.44
2018-03-24T11:06:21.036Z,8.52
2018-03-24T11:08:49.199Z,8.57
2018-03-24T11:11:16.864Z,8.64
2018-03-24T11:13:45.002Z,8.72
2018-03-24T11:16:13.096Z,8.79
2018-03-24T11:18:41.192Z,8.84
2018-03-24T11:21:08.716Z,8.88
2018-03-24T11:23:36.391Z,8.94
2018-03-24T11:26:03.967Z,9.00
2018-03-24T11:28:31.519Z,9.17
2018-03-24T11:30:59.188Z,9.30
2018-03-24T11:33:26.876Z,9.34
2018-03-24T11:35:54.396Z,9.26
2018-03-24T11:38:22.031Z,9.22
2018-03-24T11:40:49.604Z,9.27
2018-03-24T11:43:17.496Z,9.33
2018-03-24T11:45:45.645Z,9.36
2018-03-24T11:48:13.180Z,9.31
2018-03-24T11:50:41.194Z,9.27
2018-03-24T11:53:09.548Z,9.27
2018-03-24T11:55:37.060Z,9.28
2018-03-24T11:58:04.908Z,9.31
2018-03-24T12:00:33.248Z,9.35
2018-03-24T12:03:00.830Z,9.35
2018-03-24T12:05:29.183Z,9.40
2018-03-24T12:07:56.727Z,9.43
2018-03-24T12:10:26.046Z,9.47
2018-03-24T12:12:54.220Z,9.50
2018-03-24T12:15:22.285Z,9.44
2018-03-24T12:17:50.669Z,9.42
2018-03-24T12:20:18.185Z,9.41
2018-03-24T12:22:46.228Z,9.43
2018-03-24T12:25:13.761Z,9.49
2018-03-24T12:27:41.272Z,9.50
2018-03-24T12:30:08.874Z,9.55
2018-03-24T12:32:36.549Z,9.59
2018-03-24T12:35:04.080Z,9.60
2018-03-24T12:37:31.635Z,9.57
2018-03-24T12:39:59.163Z,9.56
2018-03-24T12:42:26.681Z,9.66
2018-03-24T12:44:54.870Z,9.75
2018-03-24T12:47:22.564Z,9.81
2018-03-24T12:49:50.106Z,9.86
2018-03-24T12:52:18.164Z,9.90
2018-03-24T12:54:45.694Z,9.94
2018-03-24T12:57:13.223Z,9.97
2018-03-24T12:59:41.329Z,10.03
2018-03-24T13:02:09.775Z,10.12
2018-03-24T13:04:37.301Z,10.14
2018-03-24T13:07:05.472Z,10.23
2018-03-24T13:09:33.608Z,10.36
2018-03-24T13:12:01.853Z,10.42
2018-03-24T13:14:29.383Z,10.48
2018-03-24T13:16:56.899Z,10.43
2018-03-24T13:19:25.089Z,10.34
2018-03-24T13:21:52.818Z,10.23
2018-03-24T13:24:20.363Z,10.11
2018-03-24T13:26:47.907Z,9.89
2018-03-24T13:29:15.429Z,9.78
2018-03-24T13:31:42.948Z,9.71
2018-03-24T13:34:10.506Z,9.62
2018-03-24T13:36:38.024Z,9.58
2018-03-24T13:39:05.710Z,9.60
2018-03-24T13:41:33.282Z,9.52
2018-03-24T13:44:00.848Z,9.38
2018-03-24T13:46:29.040Z,9.29
2018-03-24T13:48:57.219Z,9.27
2018-03-24T13:51:25.318Z,9.24
2018-03-24T13:53:52.848Z,9.18
2018-03-24T13:56:20.420Z,9.13
2018-03-24T13:58:47.993Z,9.08
2018-03-24T14:01:16.647Z,9.01
2018-03-24T14:03:44.242Z,8.96
2018-03-24T14:06:11.816Z,8.87
2018-03-24T14:08:39.893Z,8.83
2018-03-24T14:11:07.413Z,8.81
2018-03-24T14:13:35.789Z,8.81
2018-03-24T14:16:03.371Z,8.75
2018-03-24T14:18:31.869Z,8.73
2018-03-24T14:20:59.401Z,8.73
2018-03-24T14:23:26.999Z,8.71
2018-03-24T14:25:54.556Z,8.77
2018-03-24T14:28:22.354Z,8.80
2018-03-24T14:30:49.926Z,8.80
2018-03-24T14:33:17.584Z,8.82
2018-03-24T14:35:45.133Z,8.78
2018-03-24T14:38:12.681Z,8.77
2018-03-24T14:40:40.329Z,8.80
2018-03-24T14:43:07.929Z,8.82
2018-03-24T14:45:36.064Z,8.87
2018-03-24T14:48:03.601Z,8.91
2018-03-24T14:50:31.696Z,8.90
2018-03-24T14:53:00.064Z,8.92
2018-03-24T14:55:27.599Z,8.92
2018-03-24T14:57:55.128Z,8.90
2018-03-24T15:00:23.516Z,8.83
2018-03-24T15:02:51.052Z,8.71
2018-03-24T15:05:19.853Z,8.63
2018-03-24T15:07:47.443Z,8.59
2018-03-24T15:10:15.424Z,8.55
2018-03-24T15:12:43.484Z,8.51
2018-03-24T15:15:11.006Z,8.50
2018-03-24T15:17:38.729Z,8.45
2018-03-24T15:20:06.974Z,8.45
2018-03-24T15:22:35.161Z,8.48
2018-03-24T15:25:02.699Z,8.46
2018-03-24T15:27:30.292Z,8.39
2018-03-24T15:30:09.811Z,8.37
2018-03-24T15:32:49.619Z,8.41
2018-03-24T15:35:29.674Z,8.43
2018-03-24T15:37:57.261Z,8.43
2018-03-24T15:40:24.853Z,8.40
2018-03-24T15:42:52.428Z,8.34
2018-03-24T15:45:20.700Z,8.23
2018-03-24T15:47:48.253Z,8.17
2018-03-24T15:50:16.217Z,8.07
2018-03-24T15:52:44.453Z,7.95
2018-03-24T15:55:12.052Z,7.81
2018-03-24T15:57:39.569Z,7.72
2018-03-24T16:00:08.178Z,7.66
2018-03-24T16:02:36.588Z,7.58
2018-03-24T16:05:04.296Z,7.53
2018-03-24T16:07:31.829Z,7.46
2018-03-24T16:09:59.927Z,7.41
2018-03-24T16:12:28.008Z,7.35
2018-03-24T16:14:55.544Z,7.28
2018-03-24T16:17:23.127Z,7.23
2018-03-24T16:19:51.328Z,7.19
2018-03-24T16:22:19.497Z,7.14
2018-03-24T16:24:47.032Z,7.09
2018-03-24T16:27:14.711Z,7.05
2018-03-24T16:32:40.204Z,6.97
2018-03-24T16:35:07.917Z,6.97
2018-03-24T16:37:35.488Z,6.96
2018-03-24T16:40:03.793Z,6.89
2018-03-24T16:42:31.343Z,6.82
2018-03-24T16:44:59.348Z,6.76
2018-03-24T16:47:26.868Z,6.69
2018-03-24T16:49:55.319Z,6.64
2018-03-24T16:52:23.881Z,6.57
2018-03-24T16:54:51.434Z,6.51
2018-03-24T16:57:18.960Z,6.43
2018-03-24T16:59:47.042Z,6.36
2018-03-24T17:02:14.580Z,6.30
2018-03-24T17:04:42.211Z,6.24
2018-03-24T17:07:09.774Z,6.19
2018-03-24T17:09:38.236Z,6.17
2018-03-24T17:12:06.910Z,6.15
2018-03-24T17:14:34.442Z,6.13
2018-03-24T17:17:02.104Z,6.09
2018-03-24T17:19:30.409Z,6.06
2018-03-24T17:21:58.514Z,6.03
2018-03-24T17:24:26.058Z,5.99
2018-03-24T17:26:53.621Z,5.97
2018-03-24T17:29:21.500Z,5.93
2018-03-24T17:31:49.068Z,5.90
2018-03-24T17:34:16.635Z,5.88
2018-03-24T17:36:44.246Z,5.86
2018-03-24T17:39:12.559Z,5.86
2018-03-24T17:41:40.105Z,5.83
2018-03-24T17:44:07.868Z,5.83
2018-03-24T17:46:36.235Z,5.83
2018-03-24T17:49:03.807Z,5.81
2018-03-24T17:51:32.061Z,5.77
2018-03-24T17:54:00.456Z,5.75
2018-03-24T17:56:28.015Z,5.73
2018-03-24T17:58:55.559Z,5.71
2018-03-24T18:01:23.806Z,5.70
2018-03-24T18:03:51.392Z,5.68
2018-03-24T18:06:19.479Z,5.67
2018-03-24T18:08:47.632Z,5.69
2018-03-24T18:11:15.333Z,5.70
2018-03-24T18:13:43.394Z,5.72
2018-03-24T18:16:10.958Z,5.72
2018-03-24T18:18:39.353Z,5.71
2018-03-24T18:21:07.896Z,5.72
2018-03-24T18:23:35.492Z,5.68
2018-03-24T18:26:03.074Z,5.66
2018-03-24T18:28:30.641Z,5.61
2018-03-24T18:30:58.165Z,5.58
2018-03-24T18:33:25.697Z,5.54
2018-03-24T18:35:54.174Z,5.50
2018-03-24T18:38:21.892Z,5.48
2018-03-24T18:40:49.440Z,5.46
2018-03-24T18:43:17.007Z,5.45
2018-03-24T18:45:45.884Z,5.43
2018-03-24T18:48:13.427Z,5.44
2018-03-24T18:50:41.677Z,5.43
2018-03-24T18:53:09.893Z,5.40
2018-03-24T18:55:37.737Z,5.39
2018-03-24T19:01:03.989Z,5.35
2018-03-24T19:03:31.516Z,5.35
2018-03-24T19:05:59.776Z,5.32
2018-03-24T19:08:28.107Z,5.30
2018-03-24T19:10:56.255Z,5.30
2018-03-24T19:13:24.546Z,5.28
2018-03-24T19:15:52.191Z,5.29
2018-03-24T19:18:20.428Z,5.29
2018-03-24T19:20:48.552Z,5.28
2018-03-24T19:23:16.081Z,5.27
2018-03-24T19:25:43.645Z,5.29
2018-03-24T19:28:11.232Z,5.30
2018-03-24T19:30:38.770Z,5.31
2018-03-24T19:33:06.916Z,5.31
2018-03-24T19:35:34.460Z,5.33
2018-03-24T19:38:02.039Z,5.36
2018-03-24T19:40:29.605Z,5.37
2018-03-24T19:42:57.151Z,5.38
2018-03-24T19:45:25.405Z,5.36
2018-03-24T19:47:53.040Z,5.35
2018-03-24T19:50:21.324Z,5.34
2018-03-24T19:52:49.533Z,5.37
2018-03-24T19:55:17.087Z,5.34
2018-03-24T19:57:44.658Z,5.34
2018-03-24T20:00:12.943Z,5.34
2018-03-24T20:02:40.505Z,5.33
2018-03-24T20:05:08.050Z,5.33
2018-03-24T20:07:35.771Z,5.34
2018-03-24T20:10:04.293Z,5.37
2018-03-24T20:12:32.422Z,5.40
2018-03-24T20:14:59.961Z,5.39
2018-03-24T20:17:28.332Z,5.42
2018-03-24T20:19:56.468Z,5.43
2018-03-24T20:22:24.692Z,5.41
2018-03-24T20:24:52.357Z,5.39
2018-03-24T20:27:19.891Z,5.40
2018-03-24T20:29:47.476Z,5.40
2018-03-24T20:32:15.583Z,5.40
2018-03-24T20:34:43.151Z,5.39
2018-03-24T20:37:10.674Z,5.36
2018-03-24T20:39:38.380Z,5.33
2018-03-24T20:42:06.207Z,5.34
2018-03-24T20:44:34.430Z,5.33
2018-03-24T20:47:01.964Z,5.34
2018-03-24T20:49:30.416Z,5.31
2018-03-24T20:51:58.876Z,5.24
2018-03-24T20:54:27.121Z,5.23
2018-03-24T20:56:54.770Z,5.20
2018-03-24T20:59:22.467Z,5.16
2018-03-24T21:01:50.857Z,5.14
2018-03-24T21:04:18.384Z,5.14
2018-03-24T21:06:45.912Z,5.16
2018-03-24T21:09:14.071Z,5.15
2018-03-24T21:11:42.401Z,5.12
2018-03-24T21:14:09.945Z,5.13
2018-03-24T21:16:37.669Z,5.15
2018-03-24T21:19:06.632Z,5.17
2018-03-24T21:21:34.773Z,5.17
2018-03-24T21:24:03.191Z,5.15
2018-03-24T21:26:30.724Z,5.17
2018-03-24T21:28:58.952Z,5.21
2018-03-24T21:31:26.499Z,5.20
2018-03-24T21:33:54.045Z,5.20
2018-03-24T21:36:21.645Z,5.24
2018-03-24T21:38:49.184Z,5.23
2018-03-24T21:41:16.843Z,5.23
2018-03-24T21:43:44.411Z,5.23
2018-03-24T21:46:12.602Z,5.24
2018-03-24T21:48:40.138Z,5.24
2018-03-24T21:51:08.653Z,5.25
2018-03-24T21:53:37.388Z,5.25
2018-03-24T21:56:04.974Z,5.25
2018-03-24T21:58:32.508Z,5.27
2018-03-24T22:01:01.955Z,5.25
2018-03-24T22:03:29.528Z,5.26
2018-03-24T22:05:57.068Z,5.27
2018-03-24T22:08:25.200Z,5.25
2018-03-24T22:10:52.760Z,5.22
2018-03-24T22:13:20.696Z,5.21
2018-03-24T22:15:48.221Z,5.20
2018-03-24T22:18:16.498Z,5.21
2018-03-24T22:20:44.648Z,5.22
2018-03-24T22:23:12.181Z,5.22
2018-03-24T22:25:40.891Z,5.25
2018-03-24T22:28:08.488Z,5.26
2018-03-24T22:30:36.335Z,5.27
2018-03-24T22:33:03.960Z,5.28
2018-03-24T22:35:32.052Z,5.29
2018-03-24T22:37:59.615Z,5.30
2018-03-24T22:40:27.171Z,5.30
2018-03-24T22:42:54.755Z,5.30
2018-03-24T22:45:23.069Z,5.30
2018-03-24T22:47:50.612Z,5.32
2018-03-24T22:50:18.741Z,5.34
2018-03-24T22:52:46.708Z,5.30
2018-03-24T22:55:14.240Z,5.29
2018-03-24T22:57:41.792Z,5.27
2018-03-24T23:00:10.178Z,5.26
2018-03-24T23:02:37.741Z,5.25
2018-03-24T23:05:05.348Z,5.26
2018-03-24T23:07:32.964Z,5.30
2018-03-24T23:10:01.187Z,5.31
2018-03-24T23:12:29.515Z,5.32
2018-03-24T23:14:57.057Z,5.33
2018-03-24T23:17:24.590Z,5.33
2018-03-24T23:19:52.927Z,5.33
2018-03-24T23:22:21.201Z,5.35
2018-03-24T23:24:49.257Z,5.34
2018-03-24T23:27:16.814Z,5.32
2018-03-24T23:29:44.343Z,5.32
2018-03-24T23:32:11.943Z,5.30
2018-03-24T23:34:39.478Z,5.28
2018-03-24T23:37:07.209Z,5.28
2018-03-24T23:39:34.907Z,5.28
2018-03-24T23:42:02.456Z,5.26
2018-03-24T23:44:30.832Z,5.25
2018-03-24T23:46:58.375Z,5.23
2018-03-24T23:49:25.922Z,5.24
2018-03-24T23:51:54.185Z,5.27
2018-03-24T23:54:22.472Z,5.27
2018-03-24T23:56:50.069Z,5.27
2018-03-24T23:59:17.620Z,5.26
